Time;durP1;ratioP1;P1;durP2;ratioP2;P2;SDS_P1;SDS_P2;PMS_P1;PMS_P2;Temp;Humidity;BMP_temperature;BMP_pressure;BME280_temperature;BME280_humidity;BME280_pressure;Samples;Min_cycle;Max_cycle;Signal;HPM_P1;HPM_P2
2022/12/09 00:02:19;;;;;;;15.97;12.83;;;;;;;7.39;70.81;94780.06;5026574;28;20269;-66
2022/12/09 00:04:44;;;;;;;16.30;13.17;;;;;;;7.65;69.83;94777.69;5024635;28;20183;-66
2022/12/09 00:07:10;;;;;;;17.67;13.30;;;;;;;7.04;71.23;94777.00;5029039;28;20389;-66
2022/12/09 00:09:35;;;;;;;16.80;13.60;;;;;;;6.89;72.49;94778.34;5026332;28;20222;-66
2022/12/09 00:12:01;;;;;;;17.73;13.97;;;;;;;6.92;72.19;94782.47;5025103;28;20226;-66
2022/12/09 00:14:26;;;;;;;18.93;13.57;;;;;;;7.22;71.69;94797.25;5025939;28;20226;-65
2022/12/09 00:16:52;;;;;;;17.03;13.97;;;;;;;7.00;71.80;94803.53;5026232;28;20194;-65
2022/12/09 00:19:17;;;;;;;15.30;13.43;;;;;;;6.76;73.10;94807.38;5025366;28;20218;-66
2022/12/09 00:21:43;;;;;;;16.20;13.83;;;;;;;7.11;72.54;94807.81;5026997;28;20232;-66
2022/12/09 00:24:10;;;;;;;16.60;14.07;;;;;;;7.23;71.27;94798.91;5026776;28;20222;-66
2022/12/09 00:26:36;;;;;;;16.30;13.40;;;;;;;7.39;71.23;94809.66;5026423;28;20225;-66
2022/12/09 00:29:01;;;;;;;20.17;14.27;;;;;;;7.43;71.20;94813.66;5039754;28;20198;-66
2022/12/09 00:31:31;;;;;;;15.30;13.70;;;;;;;7.57;70.72;94808.97;5040117;28;20186;-66
2022/12/09 00:33:59;;;;;;;16.93;13.83;;;;;;;7.51;70.81;94805.09;5043962;28;20554;-66
2022/12/09 00:36:25;;;;;;;17.50;13.90;;;;;;;7.69;70.29;94816.50;5031680;28;20222;-66
2022/12/09 00:38:52;;;;;;;18.43;13.03;;;;;;;7.20;71.57;94809.66;5022082;28;20290;-66
2022/12/09 00:41:17;;;;;;;16.17;14.47;;;;;;;7.30;71.91;94789.56;5016922;28;20223;-66
2022/12/09 00:43:43;;;;;;;17.30;13.47;;;;;;;7.59;71.07;94807.03;5028668;28;20192;-66
2022/12/09 00:46:10;;;;;;;17.73;13.93;;;;;;;7.47;71.06;94804.56;5026652;28;20296;-66
2022/12/09 00:48:38;;;;;;;19.30;15.17;;;;;;;7.63;70.86;94800.56;5025323;28;20238;-66
2022/12/09 00:51:05;;;;;;;16.83;13.50;;;;;;;7.62;70.92;94793.69;5022789;28;20242;-67
2022/12/09 00:53:31;;;;;;;18.17;14.47;;;;;;;7.69;70.65;94803.44;5019039;28;20254;-66
2022/12/09 00:55:57;;;;;;;18.40;14.93;;;;;;;7.62;71.23;94815.44;5022489;28;20228;-66
2022/12/09 00:58:23;;;;;;;17.43;13.50;;;;;;;7.47;71.04;94804.56;5046256;28;20186;-67
2022/12/09 01:00:49;;;;;;;17.67;14.27;;;;;;;7.61;70.69;94807.72;5037850;28;20225;-67
2022/12/09 01:03:16;;;;;;;16.33;14.33;;;;;;;7.44;71.36;94799.59;5038286;28;20717;-66
2022/12/09 01:05:42;;;;;;;18.80;14.23;;;;;;;7.59;70.52;94793.94;5039585;28;20245;-66
2022/12/09 01:08:09;;;;;;;18.70;14.33;;;;;;;7.66;70.56;94787.19;5037368;28;20239;-66
2022/12/09 01:10:36;;;;;;;16.80;13.43;;;;;;;7.69;70.68;94802.63;5048341;28;20351;-66
2022/12/09 01:13:02;;;;;;;19.43;15.90;;;;;;;7.66;70.62;94777.53;5042168;28;20244;-66
2022/12/09 01:15:27;;;;;;;21.87;15.80;;;;;;;7.65;70.71;94772.47;5039102;28;20226;-65
2022/12/09 01:17:53;;;;;;;20.40;14.60;;;;;;;7.77;70.31;94766.09;5052082;28;20218;-67
2022/12/09 01:20:18;;;;;;;19.17;14.60;;;;;;;7.82;70.53;94781.38;5043137;28;20232;-68
2022/12/09 01:22:45;;;;;;;19.60;14.53;;;;;;;7.65;70.53;94781.13;5042092;28;20177;-67
2022/12/09 01:25:11;;;;;;;18.00;14.00;;;;;;;7.66;70.67;94789.81;5044270;28;20233;-68
2022/12/09 01:27:36;;;;;;;19.33;15.60;;;;;;;7.75;70.90;94781.09;5038865;28;20237;-67
2022/12/09 01:30:02;;;;;;;19.00;14.80;;;;;;;7.67;70.88;94767.91;5042197;28;20226;-67
2022/12/09 01:32:28;;;;;;;17.13;13.83;;;;;;;7.79;70.56;94779.88;5041067;28;20246;-68
2022/12/09 01:34:53;;;;;;;17.43;13.60;;;;;;;7.48;71.06;94790.53;5047185;28;20257;-68
2022/12/09 01:37:19;;;;;;;19.27;13.30;;;;;;;7.55;71.42;94792.59;5044237;28;20218;-68
2022/12/09 01:39:44;;;;;;;17.07;12.90;;;;;;;7.58;71.10;94800.97;5042599;28;20253;-68
2022/12/09 01:42:19;;;;;;;16.53;12.43;;;;;;;7.67;71.01;94796.69;5038645;28;20236;-68
2022/12/09 01:45:19;;;;;;;17.33;13.50;;;;;;;7.68;70.85;94782.66;5037727;28;20290;-68
2022/12/09 01:47:47;;;;;;;17.67;13.50;;;;;;;7.58;70.88;94769.56;5035730;28;20230;-66
2022/12/09 01:50:14;;;;;;;15.97;13.33;;;;;;;7.56;71.25;94778.53;5042762;28;20210;-66
2022/12/09 01:52:40;;;;;;;17.17;13.33;;;;;;;7.65;71.11;94780.31;5037740;28;20203;-66
2022/12/09 01:55:06;;;;;;;17.87;13.43;;;;;;;7.66;70.87;94769.69;5036246;28;20218;-66
2022/12/09 01:57:32;;;;;;;16.00;12.57;;;;;;;7.32;71.68;94786.78;5038356;28;20229;-66
2022/12/09 01:59:58;;;;;;;14.97;13.17;;;;;;;7.29;72.29;94780.88;5037118;28;20264;-66
2022/12/09 02:02:29;;;;;;;15.83;13.47;;;;;;;7.41;71.88;94776.34;5039508;28;20230;-66
2022/12/09 02:04:55;;;;;;;17.67;13.53;;;;;;;7.50;71.65;94785.97;5035341;28;20193;-67
2022/12/09 02:07:21;;;;;;;15.30;12.30;;;;;;;7.56;71.58;94775.91;5041527;28;20316;-66
2022/12/09 02:09:51;;;;;;;18.07;14.23;;;;;;;7.55;71.44;94774.25;5039583;28;20225;-68
2022/12/09 02:12:23;;;;;;;16.20;12.90;;;;;;;7.67;70.95;94763.50;5027840;28;20230;-66
2022/12/09 02:14:51;;;;;;;14.83;12.17;;;;;;;7.72;71.02;94760.44;5028797;28;20225;-67
2022/12/09 02:17:25;;;;;;;16.80;11.80;;;;;;;7.69;70.65;94772.03;5038641;28;20610;-66
2022/12/09 02:20:24;;;;;;;16.43;13.00;;;;;;;7.78;70.46;94778.22;5024282;28;20203;-66
2022/12/09 02:23:11;;;;;;;15.63;13.40;;;;;;;7.76;70.57;94771.50;5037582;28;20302;-66
2022/12/09 02:25:45;;;;;;;15.73;13.07;;;;;;;7.69;70.67;94768.59;5019723;28;20229;-66
2022/12/09 02:28:19;;;;;;;14.87;12.90;;;;;;;7.73;70.21;94772.59;5025751;28;20237;-66
2022/12/09 02:31:03;;;;;;;16.70;13.07;;;;;;;7.74;70.48;94769.00;5022764;28;20221;-66
2022/12/09 02:34:05;;;;;;;17.57;13.37;;;;;;;7.61;71.03;94756.19;5022401;28;20232;-66
2022/12/09 02:36:39;;;;;;;14.90;12.27;;;;;;;7.64;70.70;94755.09;5023135;28;20226;-66
2022/12/09 02:39:06;;;;;;;16.90;13.67;;;;;;;7.80;70.32;94752.72;5030008;28;20232;-66
2022/12/09 02:41:34;;;;;;;15.70;12.60;;;;;;;7.74;70.44;94746.25;5046596;28;20305;-66
2022/12/09 02:44:04;;;;;;;16.57;11.53;;;;;;;7.83;70.34;94752.47;5041006;28;20185;-66
2022/12/09 02:46:32;;;;;;;15.73;11.80;;;;;;;7.81;70.40;94764.88;5037951;28;20193;-67
2022/12/09 02:48:58;;;;;;;19.20;12.97;;;;;;;7.77;70.47;94771.31;5043103;28;20225;-67
2022/12/09 02:51:28;;;;;;;15.10;12.13;;;;;;;7.74;70.76;94792.56;5039908;28;20283;-67
2022/12/09 02:54:02;;;;;;;14.63;11.93;;;;;;;7.71;70.36;94795.47;5039119;28;20214;-67
2022/12/09 02:56:28;;;;;;;15.77;12.50;;;;;;;7.46;71.43;94795.06;5041894;28;20217;-67
2022/12/09 02:58:54;;;;;;;14.80;11.73;;;;;;;7.61;71.03;94798.06;5039823;28;20244;-68
2022/12/09 03:01:43;;;;;;;17.97;12.80;;;;;;;7.53;70.81;94792.72;5040396;28;20218;-67
2022/12/09 03:04:16;;;;;;;17.50;12.00;;;;;;;7.60;70.57;94778.13;5021436;28;20218;-68
2022/12/09 03:06:49;;;;;;;14.53;12.13;;;;;;;7.66;70.34;94792.44;5003449;28;20222;-66
2022/12/09 03:09:33;;;;;;;15.93;14.07;;;;;;;7.14;71.96;94792.72;5008624;28;20309;-66
2022/12/09 03:12:04;;;;;;;17.63;14.57;;;;;;;7.31;71.62;94774.69;5005990;28;20246;-66
2022/12/09 03:14:48;;;;;;;15.77;13.47;;;;;;;7.50;71.33;94785.13;5023818;28;20241;-67
2022/12/09 03:17:28;;;;;;;18.53;13.30;;;;;;;7.29;71.68;94795.75;5010810;28;20181;-67
2022/12/09 03:19:57;;;;;;;17.17;14.10;;;;;;;7.06;73.01;94790.78;5010078;28;20210;-67
2022/12/09 03:22:27;;;;;;;16.70;12.97;;;;;;;7.29;72.41;94783.47;5003733;28;20230;-66
2022/12/09 03:25:09;;;;;;;16.03;13.50;;;;;;;7.41;71.84;94784.19;5011696;28;20253;-67
2022/12/09 03:27:51;;;;;;;17.50;13.00;;;;;;;6.99;73.31;94773.97;5007604;28;20258;-66
2022/12/09 03:30:18;;;;;;;18.03;13.13;;;;;;;7.32;72.48;94781.56;5010243;28;20269;-66
2022/12/09 03:32:45;;;;;;;18.00;14.27;;;;;;;7.08;73.79;94774.94;5010945;28;20230;-66
2022/12/09 03:35:19;;;;;;;17.90;13.80;;;;;;;7.39;72.68;94787.91;5014831;28;20198;-66
2022/12/09 03:37:45;;;;;;;20.37;13.83;;;;;;;7.51;72.53;94785.00;5011493;28;20285;-66
2022/12/09 03:40:14;;;;;;;18.97;14.03;;;;;;;7.56;71.86;94765.44;5013404;28;20230;-66
2022/12/09 03:42:57;;;;;;;16.10;12.80;;;;;;;7.61;71.60;94771.91;5045967;28;20279;-66
2022/12/09 03:45:23;;;;;;;26.30;13.27;;;;;;;7.65;71.38;94756.75;5043718;28;20226;-67
2022/12/09 03:47:50;;;;;;;17.63;13.77;;;;;;;7.58;71.57;94753.06;5042278;28;20306;-66
2022/12/09 03:50:16;;;;;;;18.50;14.13;;;;;;;7.67;71.30;94762.66;5038217;28;20345;-66
2022/12/09 03:52:52;;;;;;;17.43;13.67;;;;;;;7.62;71.69;94757.06;5049764;28;20186;-66
2022/12/09 03:55:22;;;;;;;18.30;14.10;;;;;;;7.61;71.49;94760.63;5045098;28;20232;-66
2022/12/09 03:57:53;;;;;;;18.57;13.33;;;;;;;7.68;71.46;94769.56;5043512;28;20231;-66
2022/12/09 04:00:18;;;;;;;19.60;13.93;;;;;;;7.71;70.96;94769.28;5043634;28;20233;-66
2022/12/09 04:02:45;;;;;;;17.10;12.33;;;;;;;7.74;70.85;94779.47;5039231;28;20230;-67
2022/12/09 04:05:10;;;;;;;16.43;12.50;;;;;;;7.74;71.03;94784.69;5044841;28;20209;-66
2022/12/09 04:07:35;;;;;;;16.23;12.23;;;;;;;7.63;71.21;94783.06;5026378;28;20237;-66
2022/12/09 04:10:01;;;;;;;16.50;12.77;;;;;;;7.69;71.02;94785.13;5042943;28;20305;-66
2022/12/09 04:12:26;;;;;;;18.63;13.80;;;;;;;7.73;70.77;94772.59;5045646;28;20263;-66
2022/12/09 04:14:52;;;;;;;18.87;13.50;;;;;;;7.73;70.84;94769.97;5037228;28;20232;-67
2022/12/09 04:17:17;;;;;;;19.27;12.80;;;;;;;7.55;71.43;94777.69;5045711;28;20192;-66
2022/12/09 04:19:43;;;;;;;15.83;12.47;;;;;;;7.72;70.82;94765.69;5043538;28;20182;-66
2022/12/09 04:22:08;;;;;;;18.97;13.87;;;;;;;7.70;70.73;94775.50;5043467;28;20236;-68
2022/12/09 04:24:34;;;;;;;18.87;14.50;;;;;;;7.55;71.13;94785.56;5042542;28;20225;-67
2022/12/09 04:26:59;;;;;;;18.77;14.13;;;;;;;7.55;71.41;94775.09;5045434;28;20229;-67
2022/12/09 04:29:25;;;;;;;19.93;12.93;;;;;;;7.62;71.24;94781.44;5046754;28;20271;-67
2022/12/09 04:31:50;;;;;;;20.23;13.73;;;;;;;7.40;71.76;94779.91;5037437;28;20198;-65
2022/12/09 04:34:15;;;;;;;17.00;13.80;;;;;;;7.55;71.71;94784.72;5043501;28;20225;-65
2022/12/09 04:36:41;;;;;;;17.40;13.87;;;;;;;7.64;70.98;94769.00;5045497;28;20229;-69
2022/12/09 04:39:06;;;;;;;19.67;15.33;;;;;;;7.60;71.59;94780.72;5031201;28;20305;-65
2022/12/09 04:41:32;;;;;;;22.60;15.77;;;;;;;7.77;70.90;94780.97;5027072;28;20480;-67
2022/12/09 04:43:58;;;;;;;21.50;14.53;;;;;;;7.77;70.68;94779.19;5035735;28;20194;-67
2022/12/09 04:46:24;;;;;;;22.57;14.60;;;;;;;7.80;70.63;94773.66;5044201;28;20209;-65
2022/12/09 04:48:49;;;;;;;19.80;14.80;;;;;;;7.76;70.43;94774.94;5043721;28;20287;-65
2022/12/09 04:51:15;;;;;;;24.03;15.30;;;;;;;7.15;73.08;94773.44;5045982;28;20239;-66
2022/12/09 04:53:41;;;;;;;20.47;15.50;;;;;;;7.48;72.37;94772.22;5042466;28;20293;-66
2022/12/09 04:56:15;;;;;;;21.03;15.63;;;;;;;7.55;71.81;94788.16;5044048;28;20178;-67
2022/12/09 04:58:40;;;;;;;22.00;16.70;;;;;;;7.49;71.75;94793.97;5044923;28;20188;-66
2022/12/09 05:01:14;;;;;;;22.97;16.57;;;;;;;7.60;71.65;94796.44;5046513;28;20221;-67
2022/12/09 05:03:40;;;;;;;22.40;15.30;;;;;;;7.48;71.88;94784.44;5034664;28;20313;-66
2022/12/09 05:06:09;;;;;;;22.87;15.63;;;;;;;7.33;72.70;94784.06;5032035;28;20309;-66
2022/12/09 05:08:34;;;;;;;20.60;14.60;;;;;;;7.44;72.27;94778.66;5042544;28;20283;-67
2022/12/09 05:11:00;;;;;;;19.93;15.00;;;;;;;7.57;72.29;94785.44;5042920;28;20225;-66
2022/12/09 05:13:26;;;;;;;23.83;17.13;;;;;;;7.48;72.00;94787.91;5040269;28;20265;-66
2022/12/09 05:16:00;;;;;;;21.93;16.23;;;;;;;7.59;71.95;94786.09;5039699;28;20229;-67
2022/12/09 05:18:26;;;;;;;26.57;17.40;;;;;;;7.65;72.00;94770.66;5044698;28;20267;-66
2022/12/09 05:20:51;;;;;;;20.23;17.33;;;;;;;7.65;71.89;94769.84;5043666;28;20222;-66
2022/12/09 05:23:16;;;;;;;24.23;15.47;;;;;;;7.56;72.29;94781.13;5042729;28;20177;-66
2022/12/09 05:25:42;;;;;;;22.33;15.57;;;;;;;7.63;71.95;94785.69;5039978;28;20174;-66
2022/12/09 05:28:07;;;;;;;21.80;14.37;;;;;;;7.68;71.44;94770.38;5045038;28;20244;-66
2022/12/09 05:30:33;;;;;;;19.93;15.30;;;;;;;7.65;71.82;94799.47;5039262;28;20217;-66
2022/12/09 05:32:58;;;;;;;18.77;15.53;;;;;;;6.87;73.57;94788.13;5039654;28;20292;-67
2022/12/09 05:35:24;;;;;;;20.50;16.10;;;;;;;7.07;73.95;94765.44;5044075;28;20219;-66
2022/12/09 05:37:49;;;;;;;19.87;15.33;;;;;;;7.22;73.24;94790.25;5038077;28;20603;-66
2022/12/09 05:40:14;;;;;;;22.13;16.93;;;;;;;7.07;73.63;94809.91;5041699;28;20233;-65
2022/12/09 05:42:40;;;;;;;23.47;18.10;;;;;;;7.01;74.17;94794.75;5046039;28;20217;-66
2022/12/09 05:45:06;;;;;;;22.50;17.17;;;;;;;7.22;73.66;94795.47;5033102;28;20233;-66
2022/12/09 05:47:36;;;;;;;21.60;17.23;;;;;;;7.34;73.19;94817.06;5020173;28;20226;-68
2022/12/09 05:50:03;;;;;;;24.33;16.53;;;;;;;7.41;72.73;94809.53;5038217;28;20216;-67
2022/12/09 05:52:28;;;;;;;23.60;17.37;;;;;;;7.41;72.75;94801.69;5038352;28;20186;-68
2022/12/09 05:54:54;;;;;;;21.40;15.83;;;;;;;7.51;72.80;94816.41;5041506;28;20225;-68
2022/12/09 05:57:20;;;;;;;21.23;16.63;;;;;;;7.03;74.03;94808.50;5040575;28;20225;-67
2022/12/09 05:59:45;;;;;;;25.53;18.40;;;;;;;7.10;74.41;94795.72;5035104;28;20287;-68
2022/12/09 06:02:11;;;;;;;24.07;17.80;;;;;;;7.31;73.87;94804.28;5019098;28;20186;-68
2022/12/09 06:04:36;;;;;;;22.07;16.63;;;;;;;7.45;73.26;94805.66;5027805;28;20195;-68
2022/12/09 06:07:02;;;;;;;20.60;16.10;;;;;;;7.39;73.44;94788.72;5022545;28;20254;-67
2022/12/09 06:09:27;;;;;;;20.37;16.93;;;;;;;7.46;72.82;94789.84;5017513;28;20226;-68
2022/12/09 06:11:53;;;;;;;20.67;15.47;;;;;;;7.61;72.84;94805.09;5021612;28;20230;-66
2022/12/09 06:14:18;;;;;;;21.27;15.03;;;;;;;7.66;72.54;94805.50;5034559;28;20196;-68
2022/12/09 06:16:44;;;;;;;23.73;17.20;;;;;;;7.51;72.82;94798.09;5022266;28;20209;-67
2022/12/09 06:19:11;;;;;;;22.40;16.33;;;;;;;7.63;72.35;94798.75;5022987;28;20228;-67
2022/12/09 06:21:40;;;;;;;24.97;17.43;;;;;;;7.38;73.63;94815.84;5019187;28;20223;-67
2022/12/09 06:24:06;;;;;;;21.23;17.83;;;;;;;7.20;74.55;94800.00;5043495;28;20867;-67
2022/12/09 06:26:31;;;;;;;20.97;16.47;;;;;;;7.11;75.45;94813.06;5037727;28;20222;-66
2022/12/09 06:28:58;;;;;;;22.20;16.57;;;;;;;7.16;74.85;94809.06;5038072;28;20215;-66
2022/12/09 06:31:25;;;;;;;22.13;16.10;;;;;;;7.43;74.20;94786.66;5040501;28;20268;-66
2022/12/09 06:33:50;;;;;;;22.90;14.60;;;;;;;7.54;73.58;94824.91;5042281;28;20229;-66
2022/12/09 06:36:16;;;;;;;22.07;14.67;;;;;;;7.54;73.37;94830.16;5036098;28;20229;-67
2022/12/09 06:38:41;;;;;;;25.03;13.50;;;;;;;7.70;72.62;94793.81;5038710;28;20309;-67
2022/12/09 06:41:09;;;;;;;16.53;11.17;;;;;;;7.83;72.25;94827.53;5038943;28;20196;-66
2022/12/09 06:43:35;;;;;;;17.27;11.00;;;;;;;7.82;71.58;94842.41;5042525;28;20224;-65
2022/12/09 06:46:01;;;;;;;21.50;13.30;;;;;;;7.99;71.07;94824.34;5029296;28;20257;-64
2022/12/09 06:48:27;;;;;;;18.40;12.37;;;;;;;8.08;70.59;94828.75;5038536;28;20254;-67
2022/12/09 06:50:52;;;;;;;21.10;13.67;;;;;;;7.80;71.35;94831.25;5023403;28;20719;-66
2022/12/09 06:53:18;;;;;;;24.87;13.80;;;;;;;7.99;71.07;94846.09;5020960;28;20186;-67
2022/12/09 06:55:43;;;;;;;21.57;13.53;;;;;;;8.17;70.42;94833.13;5027817;28;20249;-67
2022/12/09 06:58:09;;;;;;;22.60;12.93;;;;;;;8.25;69.76;94830.63;5024954;28;20296;-67
2022/12/09 07:00:35;;;;;;;16.27;11.30;;;;;;;8.31;69.78;94840.56;5021518;28;20226;-67
2022/12/09 07:03:00;;;;;;;21.17;13.03;;;;;;;8.36;69.15;94833.06;5022415;28;20226;-67
2022/12/09 07:05:26;;;;;;;21.37;11.57;;;;;;;8.41;68.73;94832.69;5032704;28;20225;-65
2022/12/09 07:07:52;;;;;;;20.33;11.17;;;;;;;8.44;68.69;94821.09;5021724;28;20202;-67
2022/12/09 07:10:17;;;;;;;18.10;11.93;;;;;;;8.52;68.65;94829.06;5024732;28;20672;-67
2022/12/09 07:12:43;;;;;;;17.50;11.47;;;;;;;8.55;68.34;94820.91;5023470;28;20230;-66
2022/12/09 07:15:10;;;;;;;19.57;12.27;;;;;;;8.58;68.19;94831.09;5025799;28;20226;-66
2022/12/09 07:17:35;;;;;;;23.00;13.03;;;;;;;8.46;68.82;94827.00;5024133;28;20232;-66
2022/12/09 07:20:01;;;;;;;22.97;12.97;;;;;;;8.47;69.20;94828.66;5020279;28;20190;-67
2022/12/09 07:22:26;;;;;;;26.50;13.67;;;;;;;8.51;69.22;94840.50;5046740;28;20233;-66
2022/12/09 07:24:52;;;;;;;25.60;16.23;;;;;;;8.55;69.17;94820.91;5024784;28;20226;-68
2022/12/09 07:27:17;;;;;;;20.00;13.27;;;;;;;8.67;69.23;94847.78;5019315;28;20276;-66
2022/12/09 07:29:42;;;;;;;23.60;13.20;;;;;;;8.80;68.92;94822.03;5022191;28;20226;-68
2022/12/09 07:32:09;;;;;;;24.00;14.57;;;;;;;8.73;69.39;94840.13;5025179;28;20280;-67
2022/12/09 07:34:35;;;;;;;27.47;15.17;;;;;;;8.69;69.22;94824.88;5038717;28;20228;-67
2022/12/09 07:37:00;;;;;;;24.90;15.40;;;;;;;8.52;69.88;94822.00;5027867;28;20226;-67
2022/12/09 07:39:26;;;;;;;30.17;18.03;;;;;;;8.73;69.66;94834.06;5021617;28;20372;-67
2022/12/09 07:41:52;;;;;;;26.50;15.77;;;;;;;8.49;70.04;94819.69;5029235;28;20226;-67
2022/12/09 07:44:18;;;;;;;26.47;16.17;;;;;;;8.62;69.91;94832.47;5050077;28;20194;-67
2022/12/09 07:46:43;;;;;;;26.07;16.63;;;;;;;8.77;69.42;94836.28;5024704;28;20197;-67
2022/12/09 07:49:10;;;;;;;23.87;17.63;;;;;;;8.86;68.87;94833.75;5022756;28;20313;-67
2022/12/09 07:51:35;;;;;;;29.07;15.50;;;;;;;8.93;68.68;94830.41;5038085;28;20240;-64
2022/12/09 07:54:01;;;;;;;21.80;14.43;;;;;;;8.94;68.32;94828.59;5041685;28;20225;-65
2022/12/09 07:56:27;;;;;;;20.63;14.23;;;;;;;8.92;68.37;94833.16;5045075;28;20281;-66
2022/12/09 07:58:53;;;;;;;24.60;15.07;;;;;;;8.81;68.95;94808.78;5040939;28;20186;-66
2022/12/09 08:01:21;;;;;;;22.73;13.77;;;;;;;8.93;68.79;94824.34;5035480;28;20230;-67
2022/12/09 08:03:48;;;;;;;21.27;13.03;;;;;;;8.88;68.56;94823.94;5040173;28;20244;-67
2022/12/09 08:06:15;;;;;;;20.13;13.53;;;;;;;8.98;68.52;94832.56;5035574;28;20229;-67
2022/12/09 08:08:41;;;;;;;21.20;12.40;;;;;;;8.95;68.55;94840.72;5038597;28;20234;-67
2022/12/09 08:11:12;;;;;;;21.67;12.77;;;;;;;8.89;68.47;94808.03;5041091;28;20234;-68
2022/12/09 08:13:37;;;;;;;20.17;12.53;;;;;;;9.08;68.42;94819.41;5044834;28;20190;-68
2022/12/09 08:16:05;;;;;;;21.53;12.93;;;;;;;9.15;67.84;94833.59;5038211;28;20240;-68
2022/12/09 08:18:32;;;;;;;19.50;12.23;;;;;;;9.17;67.25;94831.66;5039902;28;20232;-68
2022/12/09 08:20:58;;;;;;;25.10;12.90;;;;;;;9.28;67.01;94850.63;5040298;28;20232;-68
2022/12/09 08:23:23;;;;;;;20.57;12.17;;;;;;;9.11;67.54;94853.19;5042605;28;20225;-68
2022/12/09 08:25:53;;;;;;;26.73;14.30;;;;;;;9.11;68.10;94853.19;5041069;28;20254;-68
2022/12/09 08:28:19;;;;;;;23.27;14.33;;;;;;;9.34;67.65;94848.38;5047377;28;20240;-68
2022/12/09 08:30:44;;;;;;;21.00;14.07;;;;;;;9.44;67.45;94854.41;5044445;28;20233;-66
2022/12/09 08:33:10;;;;;;;21.27;13.43;;;;;;;9.55;67.09;94837.59;5040039;28;20233;-67
2022/12/09 08:35:39;;;;;;;23.30;14.27;;;;;;;9.66;66.29;94847.88;5044286;28;20218;-66
2022/12/09 08:38:04;;;;;;;24.00;13.20;;;;;;;9.73;66.10;94843.69;5052247;28;20182;-67
2022/12/09 08:40:30;;;;;;;27.00;11.50;;;;;;;9.83;65.25;94825.19;5046595;28;20201;-66
2022/12/09 08:42:55;;;;;;;21.97;11.90;;;;;;;9.81;65.48;94816.63;5035955;28;20230;-66
2022/12/09 08:45:21;;;;;;;22.80;12.43;;;;;;;9.94;65.52;94807.41;5033008;28;20214;-65
2022/12/09 08:47:46;;;;;;;21.33;11.83;;;;;;;9.79;65.48;94808.13;5028403;28;20241;-66
2022/12/09 08:50:12;;;;;;;19.67;10.90;;;;;;;9.51;66.18;94823.94;5024598;28;20214;-65
2022/12/09 08:52:37;;;;;;;20.80;10.50;;;;;;;9.63;65.68;94800.91;5023403;28;20257;-66
2022/12/09 08:55:03;;;;;;;34.57;12.30;;;;;;;9.86;65.44;94802.09;5039917;28;20221;-67
2022/12/09 08:57:29;;;;;;;24.83;11.40;;;;;;;10.00;65.28;94811.22;5042317;28;20222;-66
2022/12/09 08:59:54;;;;;;;21.63;11.33;;;;;;;10.13;64.66;94789.78;5041139;28;20218;-66
2022/12/09 09:02:20;;;;;;;22.17;11.17;;;;;;;10.26;64.01;94781.50;5040555;28;20277;-66
2022/12/09 09:04:45;;;;;;;29.30;11.30;;;;;;;10.34;63.71;94779.78;5034994;28;20257;-66
2022/12/09 09:07:11;;;;;;;23.20;11.47;;;;;;;10.18;64.28;94773.56;5040565;28;20240;-65
2022/12/09 09:09:37;;;;;;;20.00;11.10;;;;;;;10.31;63.87;94772.19;5044965;28;20260;-65
2022/12/09 09:12:04;;;;;;;21.97;11.07;;;;;;;10.43;63.40;94775.41;5048795;28;20241;-64
2022/12/09 09:14:29;;;;;;;27.93;12.13;;;;;;;10.56;63.24;94752.13;5039294;28;20264;-68
2022/12/09 09:16:55;;;;;;;31.63;12.40;;;;;;;10.64;62.56;94753.97;5045323;28;20186;-66
2022/12/09 09:19:22;;;;;;;28.07;12.40;;;;;;;10.53;62.98;94747.19;5041513;28;20240;-66
2022/12/09 09:21:47;;;;;;;26.67;11.97;;;;;;;10.68;62.42;94754.47;5037308;28;20246;-68
2022/12/09 09:24:15;;;;;;;27.47;12.30;;;;;;;10.72;62.17;94745.25;5034160;28;20222;-69
2022/12/09 09:26:42;;;;;;;21.53;10.97;;;;;;;10.64;62.46;94764.47;5045794;28;20232;-68
2022/12/09 09:29:10;;;;;;;25.83;11.83;;;;;;;10.26;63.40;94744.69;5037139;28;20225;-68
2022/12/09 09:31:35;;;;;;;28.93;10.93;;;;;;;10.49;62.40;94745.84;5039415;28;20214;-68
2022/12/09 09:34:01;;;;;;;21.10;11.13;;;;;;;10.60;62.33;94742.91;5031937;28;20677;-66
2022/12/09 09:36:26;;;;;;;24.83;12.30;;;;;;;10.84;61.53;94728.22;5036405;28;20221;-68
2022/12/09 09:38:54;;;;;;;35.13;13.80;;;;;;;10.93;61.56;94724.63;5041463;28;20228;-69
2022/12/09 09:41:32;;;;;;;25.10;12.60;;;;;;;11.11;60.62;94735.00;5040396;28;20196;-68
2022/12/09 09:43:59;;;;;;;22.37;12.10;;;;;;;11.10;60.59;94714.94;5037215;28;20183;-68
2022/12/09 09:46:41;;;;;;;25.07;12.90;;;;;;;11.11;60.99;94705.25;5035144;28;20229;-67
2022/12/09 09:49:22;;;;;;;28.17;14.30;;;;;;;11.22;60.97;94710.19;5037517;28;20280;-68
2022/12/09 09:51:47;;;;;;;31.77;13.30;;;;;;;11.09;60.93;94715.09;5045709;28;20231;-68
2022/12/09 09:54:14;;;;;;;28.67;14.60;;;;;;;11.19;60.76;94721.03;5054679;28;20218;-66
2022/12/09 09:57:04;;;;;;;26.27;12.97;;;;;;;11.34;60.44;94708.91;5035416;28;20214;-67
2022/12/09 09:59:50;;;;;;;32.77;14.80;;;;;;;11.50;59.99;94683.56;5033298;28;20197;-68
2022/12/09 10:02:47;;;;;;;35.80;16.57;;;;;;;11.70;60.04;94690.09;5034402;28;20217;-66
2022/12/09 10:05:17;;;;;;;38.43;23.23;;;;;;;11.70;59.54;94679.56;5015538;28;20205;-67
2022/12/09 10:07:50;;;;;;;40.43;23.73;;;;;;;11.71;59.57;94675.97;5015837;28;20214;-67
2022/12/09 10:10:18;;;;;;;47.63;27.37;;;;;;;11.80;59.10;94671.50;5013715;28;20253;-67
2022/12/09 10:13:12;;;;;;;40.50;25.53;;;;;;;11.76;58.53;94665.75;5003551;28;20227;-67
2022/12/09 10:15:50;;;;;;;39.47;25.10;;;;;;;11.61;59.19;94644.53;4992373;28;20292;-67
2022/12/09 10:18:24;;;;;;;37.23;24.63;;;;;;;11.59;59.59;94650.94;5005913;28;20294;-66
2022/12/09 10:20:50;;;;;;;41.17;23.67;;;;;;;11.38;60.35;94656.72;5008242;28;20226;-66
2022/12/09 10:23:16;;;;;;;43.50;24.33;;;;;;;11.25;60.15;94654.59;5008387;28;20208;-68
2022/12/09 10:26:04;;;;;;;38.43;25.60;;;;;;;11.47;60.13;94640.78;5009424;28;20225;-67
2022/12/09 10:28:36;;;;;;;41.03;27.13;;;;;;;11.32;60.12;94646.88;4991464;28;20266;-69
2022/12/09 10:31:02;;;;;;;43.93;27.57;;;;;;;11.33;60.30;94644.06;5008352;28;20219;-68
2022/12/09 10:33:36;;;;;;;41.13;27.17;;;;;;;11.32;60.15;94644.25;5008958;28;20221;-68
2022/12/09 10:36:02;;;;;;;44.00;27.93;;;;;;;11.40;59.76;94634.50;4987312;28;20234;-69
2022/12/09 10:38:29;;;;;;;47.20;28.97;;;;;;;11.07;60.95;94614.47;4993240;28;20194;-68
2022/12/09 10:41:06;;;;;;;41.30;27.97;;;;;;;11.33;60.72;94617.72;5008677;28;20639;-68
2022/12/09 10:43:40;;;;;;;45.47;28.40;;;;;;;11.35;60.28;94615.75;5026876;28;20309;-69
2022/12/09 10:46:08;;;;;;;48.93;30.50;;;;;;;11.03;61.58;94617.41;5006325;28;20215;-69
2022/12/09 10:48:43;;;;;;;44.40;29.83;;;;;;;11.08;61.40;94608.22;4997266;28;20231;-67
2022/12/09 10:51:15;;;;;;;49.40;30.50;;;;;;;11.26;61.06;94616.78;4997314;28;20218;-68
2022/12/09 10:53:52;;;;;;;41.90;30.17;;;;;;;11.47;60.29;94618.91;5009397;28;20273;-68
2022/12/09 10:57:00;;;;;;;44.83;30.17;;;;;;;11.61;59.66;94601.59;5008874;28;20186;-68
2022/12/09 10:59:30;;;;;;;44.87;31.10;;;;;;;11.50;60.00;94608.03;4991448;28;20197;-68
2022/12/09 11:01:59;;;;;;;48.93;30.37;;;;;;;11.64;59.70;94617.03;4994980;28;20193;-69
2022/12/09 11:04:39;;;;;;;43.40;28.37;;;;;;;11.81;58.93;94607.28;5010133;28;20223;-68
2022/12/09 11:07:19;;;;;;;47.07;31.57;;;;;;;11.83;58.83;94603.47;4992782;28;20249;-69
2022/12/09 11:09:48;;;;;;;44.27;28.67;;;;;;;11.90;58.58;94604.50;4991241;28;20222;-69
2022/12/09 11:12:25;;;;;;;44.57;29.43;;;;;;;11.95;58.28;94618.94;4980977;28;20233;-69
2022/12/09 11:14:56;;;;;;;48.03;29.97;;;;;;;11.46;59.38;94604.88;5009629;28;20234;-68
2022/12/09 11:17:24;;;;;;;46.57;30.00;;;;;;;11.61;59.19;94586.59;5006401;28;20217;-69
2022/12/09 11:20:08;;;;;;;47.53;29.60;;;;;;;11.79;59.17;94591.66;5012565;28;20213;-69
2022/12/09 11:22:38;;;;;;;41.40;31.03;;;;;;;11.79;58.67;94610.09;4990500;28;20266;-69
2022/12/09 11:25:19;;;;;;;48.43;31.53;;;;;;;11.92;57.88;94588.50;4999637;28;20686;-68
2022/12/09 11:27:48;;;;;;;58.20;36.67;;;;;;;12.24;57.65;94589.34;4993460;28;20258;-69
2022/12/09 11:30:23;;;;;;;42.87;29.03;;;;;;;12.41;56.74;94561.94;5016855;28;20232;-69
2022/12/09 11:33:21;;;;;;;42.90;29.60;;;;;;;12.49;56.20;94566.34;5029256;28;20229;-69